Time;durP1;ratioP1;P1;durP2;ratioP2;P2;SDS_P1;SDS_P2;PMS_P1;PMS_P2;Temp;Humidity;BMP_temperature;BMP_pressure;BME280_temperature;BME280_humidity;BME280_pressure;Samples;Min_cycle;Max_cycle;Signal;HPM_P1;HPM_P2
2022/11/03 00:02:00;;;;;;;6.18;0.85;;;;;;;14.43;100.00;98460.72;7389767;19;20021;-56
2022/11/03 00:04:26;;;;;;;2.40;0.50;;;;;;;14.34;100.00;98463.91;7389689;19;20007;-56
2022/11/03 00:06:54;;;;;;;4.95;0.20;;;;;;;14.25;100.00;98464.31;7389885;19;20014;-56
2022/11/03 00:09:21;;;;;;;0.20;0.20;;;;;;;14.24;100.00;98462.78;7393762;19;20018;-56
2022/11/03 00:11:49;;;;;;;1.60;0.75;;;;;;;14.08;100.00;98464.56;7389291;19;20535;-56
2022/11/03 00:14:16;;;;;;;5.15;0.90;;;;;;;14.11;100.00;98473.94;7390296;19;20459;-56
2022/11/03 00:16:43;;;;;;;0.82;0.52;;;;;;;14.11;100.00;98462.75;7389252;19;20011;-56
2022/11/03 00:19:10;;;;;;;0.10;0.10;;;;;;;14.19;100.00;98452.44;7388100;19;21115;-56
2022/11/03 00:21:37;;;;;;;2.10;0.40;;;;;;;14.15;100.00;98452.00;7393745;19;20007;-56
2022/11/03 00:24:04;;;;;;;6.40;0.55;;;;;;;14.19;100.00;98446.84;7389837;19;20031;-56
2022/11/03 00:26:32;;;;;;;0.25;0.25;;;;;;;14.26;100.00;98446.22;7389455;19;20011;-56
2022/11/03 00:29:00;;;;;;;0.10;0.00;;;;;;;14.19;100.00;98446.84;7386680;19;20007;-56
2022/11/03 00:31:31;;;;;;;2.45;0.50;;;;;;;14.11;100.00;98445.97;7393532;19;20014;-56
2022/11/03 00:33:59;;;;;;;5.22;0.65;;;;;;;14.03;100.00;98450.69;7392982;19;20034;-55
2022/11/03 00:36:36;;;;;;;8.02;0.93;;;;;;;13.93;100.00;98447.50;7395789;19;20015;-56
2022/11/03 00:39:03;;;;;;;0.40;0.25;;;;;;;13.89;100.00;98444.25;7397437;19;20014;-56
2022/11/03 00:41:30;;;;;;;12.52;0.57;;;;;;;13.79;100.00;98453.59;7401042;19;20018;-56
2022/11/03 00:43:56;;;;;;;1.58;0.38;;;;;;;13.71;100.00;98452.69;7401450;19;20691;-56
2022/11/03 00:46:23;;;;;;;0.55;0.40;;;;;;;13.61;100.00;98453.06;7395971;19;20018;-56
2022/11/03 00:48:50;;;;;;;0.20;0.20;;;;;;;13.55;100.00;98458.00;7396562;19;20011;-56
2022/11/03 00:51:22;;;;;;;0.63;0.35;;;;;;;13.50;100.00;98458.06;7398882;19;20328;-62
2022/11/03 00:53:54;;;;;;;0.20;0.20;;;;;;;13.44;100.00;98457.38;7396488;19;20583;-56
2022/11/03 00:56:27;;;;;;;0.10;0.10;;;;;;;13.41;100.00;98469.63;7394019;19;20066;-56
2022/11/03 00:58:56;;;;;;;7.30;1.10;;;;;;;13.42;100.00;98465.56;7395897;19;20015;-56
2022/11/03 01:01:24;;;;;;;0.50;0.20;;;;;;;13.42;100.00;98466.31;7397741;19;20546;-56
2022/11/03 01:06:52;;;;;;;19.52;1.02;;;;;;;13.39;100.00;98464.56;7396495;19;20007;-56
2022/11/03 01:09:32;;;;;;;0.93;0.43;;;;;;;13.39;100.00;98461.00;7398342;19;20018;-55
2022/11/03 01:12:02;;;;;;;6.93;0.45;;;;;;;13.32;100.00;98451.19;7395303;19;20014;-56
2022/11/03 01:14:36;;;;;;;0.30;0.30;;;;;;;13.42;100.00;98440.38;7395840;19;20486;-56
2022/11/03 01:17:08;;;;;;;0.10;0.10;;;;;;;13.37;100.00;98452.38;7393801;19;20010;-55
2022/11/03 01:19:34;;;;;;;1.20;0.55;;;;;;;13.36;100.00;98448.84;7396682;19;20041;-55
2022/11/03 01:22:00;;;;;;;2.67;0.75;;;;;;;13.36;100.00;98440.44;7394983;19;20015;-55
2022/11/03 01:24:26;;;;;;;9.13;0.57;;;;;;;13.42;100.00;98429.19;7396223;19;20014;-56
2022/11/03 01:26:53;;;;;;;0.15;0.15;;;;;;;13.37;100.00;98435.63;7395959;19;20015;-56
2022/11/03 01:29:19;;;;;;;0.20;0.20;;;;;;;13.30;100.00;98433.41;7395880;19;20011;-55
2022/11/03 01:31:45;;;;;;;1.48;0.30;;;;;;;13.30;100.00;98431.38;7394668;19;20011;-55
2022/11/03 01:34:16;;;;;;;0.50;0.50;;;;;;;13.35;100.00;98441.75;7394286;19;20048;-55
2022/11/03 01:36:43;;;;;;;0.95;0.77;;;;;;;13.31;100.00;98438.50;7393713;19;20038;-56
2022/11/03 01:39:11;;;;;;;3.03;0.40;;;;;;;13.32;100.00;98431.59;7393487;19;20458;-56
2022/11/03 01:41:37;;;;;;;0.10;0.10;;;;;;;13.30;100.00;98430.63;7399324;19;20014;-56
2022/11/03 01:44:06;;;;;;;1.42;0.57;;;;;;;13.37;100.00;98436.38;7398218;19;20018;-55
2022/11/03 01:46:38;;;;;;;1.27;0.45;;;;;;;13.37;100.00;98441.97;7394641;19;20066;-56
2022/11/03 01:49:25;;;;;;;0.63;0.22;;;;;;;13.46;100.00;98444.38;7394624;19;20034;-56
2022/11/03 01:51:59;;;;;;;1.38;0.40;;;;;;;13.43;100.00;98448.25;7394067;19;20122;-55
2022/11/03 01:54:28;;;;;;;1.80;0.30;;;;;;;13.42;100.00;98438.34;7392867;19;20015;-55
2022/11/03 01:56:54;;;;;;;0.20;0.20;;;;;;;13.37;100.00;98439.16;7391781;19;20498;-56
2022/11/03 01:59:23;;;;;;;5.82;0.63;;;;;;;13.35;100.00;98455.72;7392718;19;20022;-56
2022/11/03 02:01:49;;;;;;;3.60;0.75;;;;;;;13.30;100.00;98448.16;7395121;19;20014;-56
2022/11/03 02:04:20;;;;;;;0.43;0.43;;;;;;;13.30;100.00;98442.56;7394305;19;20018;-56
2022/11/03 02:06:53;;;;;;;1.05;0.82;;;;;;;13.19;100.00;98453.88;7392162;19;20604;-56
2022/11/03 02:09:19;;;;;;;2.63;0.68;;;;;;;13.12;100.00;98460.09;7397722;19;20010;-56
2022/11/03 02:14:30;;;;;;;2.67;0.13;;;;;;;13.10;100.00;98454.28;7392728;19;20010;-55
2022/11/03 02:17:02;;;;;;;0.10;0.10;;;;;;;13.00;100.00;98447.50;7393651;19;20006;-55
2022/11/03 02:19:35;;;;;;;0.93;0.43;;;;;;;12.96;100.00;98452.63;7394499;19;20017;-56
2022/11/03 02:22:19;;;;;;;0.10;0.10;;;;;;;12.92;100.00;98446.56;7393611;19;20034;-55
2022/11/03 02:25:13;;;;;;;0.82;0.63;;;;;;;12.99;100.00;98440.41;7393846;19;20010;-56
2022/11/03 02:27:40;;;;;;;0.95;0.45;;;;;;;12.98;100.00;98450.06;7391119;19;20022;-55
2022/11/03 02:30:07;;;;;;;0.10;0.10;;;;;;;12.95;100.00;98442.72;7394418;19;20021;-56
2022/11/03 02:33:01;;;;;;;0.30;0.30;;;;;;;12.91;100.00;98434.63;7391956;19;20007;-56
2022/11/03 02:35:45;;;;;;;0.10;0.00;;;;;;;12.93;100.00;98442.47;7390643;19;20042;-56
2022/11/03 02:38:14;;;;;;;1.38;0.32;;;;;;;12.92;100.00;98432.59;7393012;19;20014;-57
2022/11/03 02:40:47;;;;;;;0.10;0.10;;;;;;;12.88;100.00;98423.75;7396238;19;20017;-55
2022/11/03 02:43:16;;;;;;;0.20;0.20;;;;;;;12.86;100.00;98423.53;7396860;19;20015;-56
2022/11/03 02:45:45;;;;;;;0.77;0.63;;;;;;;12.90;100.00;98418.41;7393193;19;20003;-56
2022/11/03 02:48:14;;;;;;;6.03;1.30;;;;;;;12.95;100.00;98428.75;7393091;19;20006;-56
2022/11/03 02:50:41;;;;;;;8.38;0.85;;;;;;;12.98;100.00;98426.94;7395462;19;20018;-56
2022/11/03 02:53:11;;;;;;;1.50;0.70;;;;;;;12.94;100.00;98421.66;7391165;19;20031;-56
2022/11/03 02:55:41;;;;;;;4.07;0.20;;;;;;;12.91;100.00;98426.25;7391177;19;20019;-56
2022/11/03 02:58:10;;;;;;;0.10;0.10;;;;;;;12.87;100.00;98409.03;7391883;19;20011;-56
2022/11/03 03:01:17;;;;;;;0.28;0.20;;;;;;;12.88;100.00;98418.19;7392917;19;20388;-56
2022/11/03 03:03:47;;;;;;;0.60;0.40;;;;;;;12.89;100.00;98412.06;7392080;19;20010;-56
2022/11/03 03:06:37;;;;;;;4.43;0.63;;;;;;;12.85;100.00;98405.25;7391200;19;20010;-56
2022/11/03 03:09:09;;;;;;;0.17;0.15;;;;;;;12.88;100.00;98390.25;7395392;19;20070;-56
2022/11/03 03:11:40;;;;;;;0.17;0.17;;;;;;;12.90;100.00;98382.84;7394751;19;20021;-56
2022/11/03 03:14:14;;;;;;;0.20;0.20;;;;;;;12.98;100.00;98373.84;7395365;19;20479;-56
2022/11/03 03:16:56;;;;;;;0.30;0.20;;;;;;;12.95;100.00;98367.25;7390599;19;20464;-56
2022/11/03 03:19:57;;;;;;;1.70;0.63;;;;;;;13.02;100.00;98372.25;7391255;19;20010;-56
2022/11/03 03:22:44;;;;;;;0.15;0.15;;;;;;;13.09;100.00;98376.53;7388240;19;20018;-56
2022/11/03 03:25:17;;;;;;;4.03;1.45;;;;;;;13.05;100.00;98392.84;7390474;19;20018;-56
2022/11/03 03:27:51;;;;;;;8.38;0.65;;;;;;;13.10;100.00;98390.00;7391882;19;20019;-56
2022/11/03 03:30:18;;;;;;;0.75;0.75;;;;;;;13.09;100.00;98382.88;7392516;19;20010;-56
2022/11/03 03:32:47;;;;;;;0.52;0.30;;;;;;;13.16;100.00;98373.91;7389350;19;20014;-55
2022/11/03 03:35:21;;;;;;;0.10;0.10;;;;;;;13.14;100.00;98368.09;7390676;19;20025;-56
2022/11/03 03:37:51;;;;;;;1.30;0.85;;;;;;;13.06;100.00;98378.34;7391372;19;20010;-56
2022/11/03 03:40:29;;;;;;;1.00;0.75;;;;;;;13.04;100.00;98369.69;7392845;19;20023;-62
2022/11/03 03:42:57;;;;;;;8.57;0.57;;;;;;;13.03;100.00;98373.03;7392357;19;20522;-62
2022/11/03 03:45:25;;;;;;;0.40;0.40;;;;;;;13.15;100.00;98369.56;7390257;19;20021;-62
2022/11/03 03:47:51;;;;;;;8.30;1.25;;;;;;;13.16;100.00;98379.47;7391719;19;20015;-62
2022/11/03 03:50:19;;;;;;;1.95;0.75;;;;;;;13.19;100.00;98370.03;7391919;19;20018;-62
2022/11/03 03:52:47;;;;;;;0.20;0.20;;;;;;;13.18;100.00;98368.53;7389473;19;20014;-62
2022/11/03 03:55:19;;;;;;;1.02;0.30;;;;;;;13.11;100.00;98369.13;7390639;19;20007;-62
2022/11/03 03:57:45;;;;;;;4.88;0.30;;;;;;;13.07;100.00;98374.25;7390821;19;20010;-62
2022/11/03 04:00:14;;;;;;;11.25;0.38;;;;;;;13.05;100.00;98365.66;7390944;19;20043;-62
2022/11/03 04:02:41;;;;;;;0.30;0.30;;;;;;;12.98;100.00;98355.03;7389804;19;20022;-62
2022/11/03 04:05:07;;;;;;;0.30;0.25;;;;;;;12.92;100.00;98357.94;7389073;19;20027;-62
2022/11/03 04:07:45;;;;;;;0.22;0.22;;;;;;;12.97;100.00;98355.59;7389195;19;20010;-62
2022/11/03 04:10:12;;;;;;;11.32;0.85;;;;;;;12.92;100.00;98340.41;7391855;19;20010;-62
2022/11/03 04:22:15;;;;;;;12.23;0.57;;;;;;;12.88;100.00;98340.72;7389766;19;20079;-62
2022/11/03 04:23:59;;;;;;;0.10;0.10;;;;;;;12.77;100.00;98335.25;7389751;19;20662;-63
2022/11/03 04:26:26;;;;;;;0.68;0.68;;;;;;;12.72;100.00;98327.69;7388873;19;20035;-62
2022/11/03 04:28:53;;;;;;;0.32;0.30;;;;;;;12.71;100.00;98328.97;7388332;19;20382;-62
2022/11/03 04:31:20;;;;;;;2.13;0.40;;;;;;;12.73;100.00;98322.88;7391171;19;20501;-64
2022/11/03 04:33:47;;;;;;;1.90;0.57;;;;;;;12.76;100.00;98327.38;7385789;19;20018;-62
2022/11/03 04:36:20;;;;;;;11.93;0.57;;;;;;;12.70;100.00;98329.50;7389074;19;20031;-62
2022/11/03 04:38:47;;;;;;;0.10;0.10;;;;;;;12.64;100.00;98326.03;7389169;19;20104;-62
2022/11/03 04:41:19;;;;;;;1.13;0.68;;;;;;;12.65;100.00;98321.94;7393053;19;20014;-62
2022/11/03 04:43:45;;;;;;;6.20;0.52;;;;;;;12.69;100.00;98322.41;7392655;19;20015;-62
2022/11/03 04:46:22;;;;;;;0.20;0.15;;;;;;;12.69;100.00;98328.75;7389048;19;20010;-62
2022/11/03 04:48:48;;;;;;;0.15;0.15;;;;;;;12.64;100.00;98328.81;7388051;19;20011;-62
2022/11/03 04:51:17;;;;;;;1.02;0.15;;;;;;;12.58;100.00;98325.34;7391923;19;20093;-62
2022/11/03 04:53:57;;;;;;;9.63;1.55;;;;;;;12.49;100.00;98323.69;7387038;19;20010;-62
2022/11/03 04:56:24;;;;;;;0.40;0.30;;;;;;;12.49;100.00;98320.88;7388834;19;20021;-62
2022/11/03 04:58:52;;;;;;;0.30;0.30;;;;;;;12.47;100.00;98317.88;7388401;19;20014;-62
2022/11/03 05:01:20;;;;;;;4.60;0.30;;;;;;;12.42;100.00;98315.13;7391856;19;20015;-62
2022/11/03 05:03:52;;;;;;;7.78;1.70;;;;;;;12.49;100.00;98309.72;7387685;19;20372;-62
2022/11/03 05:06:22;;;;;;;0.50;0.50;;;;;;;12.49;100.00;98308.94;7388387;19;20015;-62
2022/11/03 05:08:54;;;;;;;0.30;0.30;;;;;;;12.49;100.00;98315.31;7391220;19;20018;-62
2022/11/03 05:11:25;;;;;;;0.17;0.17;;;;;;;12.48;100.00;98304.63;7391692;19;20066;-62
2022/11/03 05:13:51;;;;;;;1.27;0.15;;;;;;;12.52;100.00;98296.72;7392534;19;20018;-62
2022/11/03 05:16:17;;;;;;;1.80;0.15;;;;;;;12.54;100.00;98296.97;7388763;19;20017;-62
2022/11/03 05:18:47;;;;;;;0.73;0.73;;;;;;;12.64;100.00;98284.13;7388984;19;20018;-62
2022/11/03 05:21:16;;;;;;;1.85;0.68;;;;;;;12.71;100.00;98291.91;7398431;19;20018;-62
2022/11/03 05:23:48;;;;;;;0.85;0.50;;;;;;;12.68;100.00;98287.38;7395049;19;20034;-62
2022/11/03 05:26:34;;;;;;;0.20;0.20;;;;;;;12.66;100.00;98284.38;7394672;19;20018;-62
2022/11/03 05:29:01;;;;;;;0.10;0.08;;;;;;;12.65;100.00;98280.03;7393513;19;20090;-62
2022/11/03 05:31:31;;;;;;;0.10;0.10;;;;;;;12.66;100.00;98273.19;7399373;19;20010;-62
2022/11/03 05:34:00;;;;;;;0.10;0.10;;;;;;;12.62;100.00;98269.94;7394319;19;20048;-62
2022/11/03 05:36:32;;;;;;;3.83;0.57;;;;;;;12.59;100.00;98262.63;7392950;19;20339;-62
2022/11/03 05:39:14;;;;;;;0.20;0.20;;;;;;;12.54;100.00;98260.66;7394083;19;20513;-62
2022/11/03 05:41:40;;;;;;;5.97;1.25;;;;;;;12.52;100.00;98266.00;7395410;19;20026;-62
2022/11/03 05:44:36;;;;;;;0.43;0.40;;;;;;;12.46;100.00;98266.09;7399160;19;20042;-62
2022/11/03 05:47:17;;;;;;;2.17;0.50;;;;;;;12.43;100.00;98271.97;7394645;19;20015;-62
2022/11/03 05:49:43;;;;;;;25.35;1.17;;;;;;;12.46;100.00;98254.91;7393185;19;20011;-62
2022/11/03 05:52:18;;;;;;;3.15;1.05;;;;;;;12.49;100.00;98244.72;7392601;19;20038;-62
2022/11/03 05:54:44;;;;;;;0.10;0.10;;;;;;;12.50;100.00;98249.78;7394232;19;20011;-62
2022/11/03 05:57:13;;;;;;;0.15;0.15;;;;;;;12.47;100.00;98247.31;7394016;19;20044;-62
2022/11/03 05:59:39;;;;;;;7.68;0.75;;;;;;;12.53;100.00;98247.97;7395248;19;20014;-62
2022/11/03 06:02:36;;;;;;;0.20;0.20;;;;;;;12.52;100.00;98246.44;7396358;19;20014;-62
2022/11/03 06:05:20;;;;;;;2.65;0.85;;;;;;;12.58;100.00;98244.38;7396232;19;20014;-62
2022/11/03 06:07:47;;;;;;;3.50;0.50;;;;;;;12.60;100.00;98242.56;7397196;19;20384;-62
2022/11/03 06:10:38;;;;;;;0.25;0.25;;;;;;;12.68;100.00;98237.88;7398446;19;20006;-62
2022/11/03 06:13:12;;;;;;;1.38;1.20;;;;;;;12.79;100.00;98236.94;7396531;19;20021;-62
2022/11/03 06:15:42;;;;;;;2.97;0.40;;;;;;;12.81;100.00;98232.34;7394561;19;20026;-62
2022/11/03 06:18:34;;;;;;;1.50;0.68;;;;;;;12.82;100.00;98233.09;7394202;19;20022;-62
2022/11/03 06:21:23;;;;;;;4.72;0.30;;;;;;;12.83;100.00;98226.22;7395983;19;20018;-62
2022/11/03 06:23:51;;;;;;;1.58;0.60;;;;;;;12.82;100.00;98221.94;7396194;19;20019;-62
2022/11/03 06:26:23;;;;;;;0.52;0.30;;;;;;;12.79;100.00;98220.19;7394731;19;20021;-62
2022/11/03 06:28:50;;;;;;;0.60;0.45;;;;;;;12.86;100.00;98214.00;7394887;19;20345;-62
2022/11/03 06:31:22;;;;;;;0.20;0.20;;;;;;;12.92;100.00;98223.03;7399714;19;20014;-62
2022/11/03 06:33:51;;;;;;;0.55;0.10;;;;;;;13.03;100.00;98217.28;7392939;19;20027;-62
2022/11/03 06:36:21;;;;;;;0.10;0.10;;;;;;;13.05;100.00;98219.56;7395296;19;20011;-62
2022/11/03 06:38:51;;;;;;;1.75;0.57;;;;;;;13.05;100.00;98217.53;7394599;19;20507;-62
2022/11/03 06:41:26;;;;;;;0.43;0.40;;;;;;;13.07;100.00;98212.16;7398373;19;20010;-62
2022/11/03 06:43:53;;;;;;;0.30;0.10;;;;;;;13.08;100.00;98204.53;7397663;19;20018;-62
2022/11/03 06:46:24;;;;;;;0.85;0.28;;;;;;;13.05;100.00;98214.75;7393292;19;20108;-57
2022/11/03 06:48:57;;;;;;;0.10;0.10;;;;;;;13.05;100.00;98214.75;7393488;19;20074;-62
2022/11/03 06:51:27;;;;;;;4.50;1.58;;;;;;;13.02;100.00;98221.34;7396409;19;20014;-55
2022/11/03 06:53:58;;;;;;;10.40;0.63;;;;;;;12.93;100.00;98222.50;7390844;19;20066;-56
2022/11/03 06:56:28;;;;;;;1.45;0.40;;;;;;;12.97;100.00;98222.22;7391197;19;20509;-56
2022/11/03 06:58:56;;;;;;;4.30;1.65;;;;;;;12.93;100.00;98214.13;7387847;19;20010;-62
2022/11/03 07:01:29;;;;;;;2.92;0.85;;;;;;;12.96;100.00;98217.91;7395638;19;20015;-56
2022/11/03 07:04:00;;;;;;;5.35;1.05;;;;;;;13.01;100.00;98219.09;7392921;19;20014;-55
2022/11/03 07:06:30;;;;;;;2.77;0.67;;;;;;;13.01;100.00;98228.25;7396184;19;20017;-56
2022/11/03 07:09:03;;;;;;;7.43;1.08;;;;;;;13.10;100.00;98230.69;7392047;19;20243;-56
2022/11/03 07:11:33;;;;;;;10.90;0.43;;;;;;;13.08;100.00;98235.28;7396856;19;20010;-56
2022/11/03 07:14:25;;;;;;;2.88;1.05;;;;;;;13.07;100.00;98228.94;7396184;19;20018;-55
2022/11/03 07:16:54;;;;;;;5.80;0.95;;;;;;;13.17;100.00;98229.28;7390065;19;20018;-56
2022/11/03 07:19:23;;;;;;;9.20;1.85;;;;;;;13.23;100.00;98233.50;7396536;19;20814;-56
2022/11/03 07:22:09;;;;;;;0.50;0.32;;;;;;;13.10;100.00;98230.69;7390662;19;20040;-56
2022/11/03 07:24:40;;;;;;;0.65;0.43;;;;;;;13.07;100.00;98233.75;7391454;19;20083;-55
2022/11/03 07:27:35;;;;;;;3.43;1.03;;;;;;;12.97;100.00;98238.97;7391902;19;20018;-56
2022/11/03 07:30:21;;;;;;;0.65;0.22;;;;;;;13.02;100.00;98237.34;7392676;19;20756;-55
2022/11/03 07:32:53;;;;;;;0.88;0.63;;;;;;;13.08;100.00;98236.03;7390191;19;20007;-56
2022/11/03 07:35:30;;;;;;;2.67;0.93;;;;;;;13.06;100.00;98227.41;7391456;19;20479;-55
2022/11/03 07:38:01;;;;;;;11.95;1.08;;;;;;;13.02;100.00;98224.16;7390470;19;20019;-56
2022/11/03 07:40:30;;;;;;;1.85;0.88;;;;;;;13.02;100.00;98231.78;7391210;19;20015;-62
2022/11/03 07:42:59;;;;;;;1.33;0.47;;;;;;;13.00;100.00;98234.34;7391756;19;20014;-62
2022/11/03 07:45:38;;;;;;;12.38;0.95;;;;;;;13.05;100.00;98248.28;7390470;19;20015;-62
2022/11/03 07:48:21;;;;;;;3.17;1.08;;;;;;;13.02;100.00;98249.31;7390342;19;20007;-62
2022/11/03 07:50:49;;;;;;;1.08;0.98;;;;;;;12.79;100.00;98242.53;7393603;19;20026;-56
2022/11/03 07:53:23;;;;;;;0.57;0.57;;;;;;;12.91;100.00;98239.06;7389616;19;20038;-63
2022/11/03 07:55:53;;;;;;;2.97;0.47;;;;;;;13.09;100.00;98237.53;7394369;19;20019;-62
2022/11/03 07:58:26;;;;;;;2.47;0.10;;;;;;;13.23;100.00;98230.69;7390767;19;20022;-62
2022/11/03 08:00:57;;;;;;;5.75;1.20;;;;;;;13.31;100.00;98245.59;7391756;19;20026;-62
2022/11/03 08:03:39;;;;;;;1.38;0.63;;;;;;;13.28;100.00;98246.63;7393837;19;20021;-62
2022/11/03 08:06:06;;;;;;;1.30;1.00;;;;;;;13.29;100.00;98262.13;7393366;19;20408;-63
2022/11/03 08:08:32;;;;;;;1.95;0.20;;;;;;;13.38;100.00;98256.13;7390098;19;20010;-62
2022/11/03 08:10:58;;;;;;;0.50;0.45;;;;;;;13.33;100.00;98256.97;7391581;19;20353;-62
2022/11/03 08:13:24;;;;;;;0.45;0.38;;;;;;;13.31;100.00;98253.97;7389626;19;20103;-62
2022/11/03 08:15:50;;;;;;;0.95;0.52;;;;;;;13.37;100.00;98245.47;7389929;19;20010;-62
2022/11/03 08:18:16;;;;;;;25.83;3.50;;;;;;;13.48;100.00;98248.84;7390362;19;20077;-62
2022/11/03 08:20:42;;;;;;;5.10;1.98;;;;;;;13.55;100.00;98234.25;7390471;19;20014;-62
2022/11/03 08:23:10;;;;;;;3.83;0.60;;;;;;;13.58;100.00;98227.56;7389234;19;20013;-62
2022/11/03 08:25:37;;;;;;;0.95;0.52;;;;;;;13.63;100.00;98234.34;7390252;19;20015;-62
2022/11/03 08:28:03;;;;;;;0.52;0.52;;;;;;;13.68;100.00;98236.31;7389689;19;20017;-63
2022/11/03 08:30:29;;;;;;;0.30;0.20;;;;;;;13.75;100.00;98229.31;7391571;19;20455;-62
2022/11/03 08:32:56;;;;;;;6.80;1.85;;;;;;;13.88;100.00;98237.72;7388255;19;20542;-62
2022/11/03 08:35:22;;;;;;;0.63;0.63;;;;;;;13.84;100.00;98240.09;7389089;19;20015;-62
2022/11/03 08:37:48;;;;;;;0.95;0.88;;;;;;;13.84;100.00;98237.28;7388103;19;20118;-62
2022/11/03 08:40:14;;;;;;;0.38;0.38;;;;;;;13.88;100.00;98215.34;7389569;19;20007;-62
2022/11/03 08:42:40;;;;;;;0.15;0.15;;;;;;;13.89;100.00;98211.22;7388825;19;20011;-62
2022/11/03 08:45:07;;;;;;;2.65;0.80;;;;;;;13.94;100.00;98196.38;7388407;19;20367;-62
2022/11/03 08:47:33;;;;;;;0.35;0.22;;;;;;;13.96;100.00;98193.78;7386868;19;20022;-62
2022/11/03 08:49:59;;;;;;;5.82;1.10;;;;;;;13.88;100.00;98204.16;7387008;19;20014;-63
2022/11/03 08:52:26;;;;;;;0.30;0.15;;;;;;;13.83;100.00;98202.94;7386002;19;20023;-62
2022/11/03 08:54:52;;;;;;;0.52;0.43;;;;;;;13.84;100.00;98201.66;7394271;19;20006;-62
2022/11/03 08:57:18;;;;;;;0.10;0.10;;;;;;;13.79;100.00;98207.34;7395871;19;20011;-62
2022/11/03 08:59:44;;;;;;;3.88;0.95;;;;;;;13.78;100.00;98200.25;7396214;19;20007;-62
2022/11/03 09:02:10;;;;;;;3.97;0.63;;;;;;;13.75;100.00;98204.91;7395568;19;20025;-62
2022/11/03 09:04:36;;;;;;;0.20;0.10;;;;;;;13.82;100.00;98203.50;7394705;19;20680;-63
2022/11/03 09:07:03;;;;;;;2.53;1.38;;;;;;;13.86;100.00;98204.66;7395039;19;20015;-62
2022/11/03 09:09:29;;;;;;;12.48;1.02;;;;;;;13.96;100.00;98199.41;7395514;19;20018;-62
2022/11/03 09:11:55;;;;;;;3.13;1.27;;;;;;;13.92;100.00;98210.16;7394784;19;20018;-62
2022/11/03 09:14:21;;;;;;;1.40;0.30;;;;;;;13.95;100.00;98206.28;7395036;19;20432;-62
2022/11/03 09:16:47;;;;;;;3.83;0.73;;;;;;;13.88;100.00;98198.53;7394012;19;20014;-62
2022/11/03 09:19:13;;;;;;;1.02;0.88;;;;;;;13.81;100.00;98199.94;7394255;19;20706;-62
2022/11/03 09:21:39;;;;;;;0.85;0.40;;;;;;;13.84;100.00;98198.13;7393558;19;20039;-62
2022/11/03 09:24:06;;;;;;;0.32;0.32;;;;;;;13.87;100.00;98197.78;7396049;19;20010;-62
2022/11/03 09:26:32;;;;;;;0.50;0.50;;;;;;;13.91;100.00;98197.44;7395508;19;20003;-62
2022/11/03 09:28:58;;;;;;;0.32;0.30;;;;;;;13.99;100.00;98203.94;7396321;19;20066;-62
2022/11/03 09:31:27;;;;;;;1.75;1.33;;;;;;;13.98;100.00;98205.97;7399282;19;20018;-62
2022/11/03 09:33:53;;;;;;;1.30;0.70;;;;;;;14.08;100.00;98200.66;7391024;19;20015;-63
2022/11/03 09:36:20;;;;;;;2.08;1.27;;;;;;;14.01;100.00;98202.06;7394764;19;20020;-62
2022/11/03 09:38:46;;;;;;;0.90;0.57;;;;;;;14.13;100.00;98202.63;7394953;19;20019;-62
2022/11/03 09:41:16;;;;;;;0.90;0.77;;;;;;;14.13;100.00;98192.19;7398799;19;20363;-62
2022/11/03 09:43:44;;;;;;;0.50;0.47;;;;;;;14.25;100.00;98198.31;7398089;19;20014;-62
2022/11/03 09:46:11;;;;;;;0.80;0.30;;;;;;;14.31;100.00;98182.91;7394045;19;20010;-62
2022/11/03 09:48:38;;;;;;;0.10;0.10;;;;;;;14.30;100.00;98191.84;7394339;19;20014;-62
2022/11/03 09:51:05;;;;;;;0.85;0.25;;;;;;;14.36;100.00;98186.88;7398282;19;20019;-56
2022/11/03 09:53:31;;;;;;;8.02;0.77;;;;;;;14.44;100.00;98176.53;7392356;19;20014;-56
2022/11/03 09:55:57;;;;;;;1.77;0.55;;;;;;;14.51;100.00;98159.03;7394174;19;20010;-56
2022/11/03 09:58:25;;;;;;;0.65;0.65;;;;;;;14.53;100.00;98164.84;7393139;19;20463;-56
2022/11/03 10:00:51;;;;;;;5.20;0.65;;;;;;;14.47;100.00;98160.69;7396939;19;20037;-56
2022/11/03 10:03:19;;;;;;;7.95;1.35;;;;;;;14.38;100.00;98178.69;7394453;19;20095;-56
2022/11/03 10:05:47;;;;;;;2.28;0.60;;;;;;;14.43;100.00;98180.63;7392910;19;20594;-55
2022/11/03 10:08:34;;;;;;;1.33;0.57;;;;;;;14.55;100.00;98186.75;7394412;19;20014;-56
2022/11/03 10:11:01;;;;;;;5.38;0.55;;;;;;;14.78;100.00;98182.13;7397533;19;20074;-56
2022/11/03 10:13:33;;;;;;;6.15;1.20;;;;;;;14.99;100.00;98172.44;7395595;19;20025;-56
2022/11/03 10:16:01;;;;;;;5.38;1.38;;;;;;;15.16;100.00;98167.16;7393843;19;20070;-55
2022/11/03 10:18:28;;;;;;;0.43;0.43;;;;;;;15.28;100.00;98172.50;7395389;19;20015;-56
2022/11/03 10:20:54;;;;;;;8.63;0.45;;;;;;;15.40;100.00;98179.34;7394066;19;20709;-56
2022/11/03 10:23:20;;;;;;;1.42;0.47;;;;;;;15.20;100.00;98175.25;7393114;19;20382;-56
2022/11/03 10:25:47;;;;;;;0.13;0.13;;;;;;;15.26;100.00;98175.09;7393276;19;20010;-56
2022/11/03 10:28:23;;;;;;;0.35;0.30;;;;;;;15.42;100.00;98173.94;7393824;19;20006;-62
2022/11/03 10:31:01;;;;;;;0.10;0.10;;;;;;;15.49;100.00;98176.81;7395500;19;20014;-62
2022/11/03 10:33:29;;;;;;;1.27;0.73;;;;;;;15.34;100.00;98170.31;7390823;19;20014;-62
2022/11/03 10:36:00;;;;;;;0.38;0.38;;;;;;;15.57;100.00;98165.66;7394025;19;20025;-62
2022/11/03 10:38:31;;;;;;;12.43;0.93;;;;;;;15.85;100.00;98154.44;7392992;19;20463;-62
2022/11/03 10:41:16;;;;;;;13.68;0.90;;;;;;;15.93;100.00;98152.41;7396212;19;20028;-62
2022/11/03 10:43:57;;;;;;;3.28;1.30;;;;;;;16.04;100.00;98159.75;7397339;19;20025;-63
2022/11/03 10:46:24;;;;;;;1.55;0.43;;;;;;;16.27;100.00;98169.03;7392564;19;20010;-62
2022/11/03 10:49:17;;;;;;;3.22;1.08;;;;;;;16.23;100.00;98163.78;7392173;19;20363;-62
2022/11/03 10:51:46;;;;;;;0.57;0.43;;;;;;;16.18;100.00;98161.88;7390858;19;20011;-62
2022/11/03 10:54:15;;;;;;;5.47;1.77;;;;;;;16.09;100.00;98156.78;7393834;19;20018;-62
2022/11/03 10:56:43;;;;;;;8.50;0.47;;;;;;;16.09;100.00;98156.78;7390156;19;20029;-62
2022/11/03 10:59:20;;;;;;;2.10;0.45;;;;;;;16.03;100.00;98161.81;7391507;19;20078;-63
2022/11/03 11:01:47;;;;;;;1.05;0.45;;;;;;;16.09;100.00;98156.78;7391749;19;20007;-63
2022/11/03 11:04:17;;;;;;;0.28;0.22;;;;;;;16.13;100.00;98157.19;7392808;19;20035;-63
2022/11/03 11:06:45;;;;;;;0.30;0.30;;;;;;;16.10;100.00;98158.28;7392030;19;20010;-63
2022/11/03 11:09:19;;;;;;;6.05;0.98;;;;;;;16.09;100.00;98153.25;7392034;19;20020;-63
2022/11/03 11:12:05;;;;;;;0.20;0.20;;;;;;;16.21;100.00;98146.75;7391023;19;20827;-63
2022/11/03 11:14:35;;;;;;;0.17;0.10;;;;;;;16.26;100.00;98147.88;7391662;19;20329;-63
2022/11/03 11:17:03;;;;;;;9.90;0.43;;;;;;;16.44;100.00;98149.63;7390143;19;20038;-63
2022/11/03 11:19:49;;;;;;;1.15;0.45;;;;;;;16.54;100.00;98148.59;7392105;19;20011;-63
2022/11/03 11:22:22;;;;;;;1.73;0.85;;;;;;;16.45;100.00;98146.28;7391798;19;20012;-62
2022/11/03 11:24:48;;;;;;;3.50;1.27;;;;;;;16.33;100.00;98142.28;7391327;19;20010;-63
2022/11/03 11:27:39;;;;;;;2.28;0.68;;;;;;;16.22;100.00;98139.06;7392253;19;20014;-63
2022/11/03 11:30:28;;;;;;;3.92;0.70;;;;;;;16.28;100.00;98143.22;7392951;19;20014;-63
2022/11/03 11:32:59;;;;;;;3.72;1.10;;;;;;;16.18;100.00;98150.66;7388687;19;20007;-62
2022/11/03 11:35:25;;;;;;;3.65;1.52;;;;;;;15.95;100.00;98147.00;7391471;19;20372;-62
2022/11/03 11:37:52;;;;;;;1.55;0.75;;;;;;;15.82;100.00;98147.88;7390414;19;20503;-63
2022/11/03 11:40:18;;;;;;;4.95;0.43;;;;;;;15.84;100.00;98144.50;7392801;19;20550;-62
2022/11/03 11:43:00;;;;;;;4.07;1.23;;;;;;;15.89;100.00;98141.53;7392286;19;20360;-63
2022/11/03 11:46:04;;;;;;;5.15;0.73;;;;;;;15.94;100.00;98142.66;7391293;19;20018;-63
2022/11/03 11:48:30;;;;;;;5.70;0.47;;;;;;;15.94;100.00;98142.66;7391000;19;20038;-63
2022/11/03 11:50:58;;;;;;;0.57;0.20;;;;;;;16.05;100.00;98142.34;7392255;19;20070;-63
2022/11/03 11:53:25;;;;;;;1.75;0.30;;;;;;;16.07;100.00;98136.19;7389462;19;20010;-62
2022/11/03 11:56:00;;;;;;;8.23;0.75;;;;;;;16.22;100.00;98137.00;7395082;19;20040;-62
2022/11/03 11:58:49;;;;;;;6.65;0.60;;;;;;;16.25;100.00;98126.72;7391592;19;20003;-62